createdAt,value
2022-08-30T00:01:32.165Z,19.50
2022-08-30T00:04:01.713Z,19.50
2022-08-30T00:06:30.472Z,19.40
2022-08-30T00:08:57.580Z,19.40
2022-08-30T00:11:27.747Z,19.40
2022-08-30T00:13:56.786Z,19.40
2022-08-30T00:16:26.366Z,19.40
2022-08-30T00:18:54.462Z,19.30
2022-08-30T00:21:22.260Z,19.30
2022-08-30T00:23:49.220Z,19.30
2022-08-30T00:26:16.519Z,19.40
2022-08-30T00:28:43.460Z,19.30
2022-08-30T00:31:10.670Z,19.40
2022-08-30T00:33:42.395Z,19.30
2022-08-30T00:36:09.432Z,19.30
2022-08-30T00:38:36.337Z,19.30
2022-08-30T00:41:03.361Z,19.30
2022-08-30T00:43:34.816Z,19.30
2022-08-30T00:46:08.138Z,19.30
2022-08-30T00:48:42.726Z,19.30
2022-08-30T00:51:15.524Z,19.20
2022-08-30T00:53:48.542Z,19.20
2022-08-30T00:56:17.858Z,19.20
2022-08-30T00:58:50.462Z,19.20
2022-08-30T01:01:19.038Z,19.20
2022-08-30T01:03:47.573Z,19.20
2022-08-30T01:06:15.702Z,19.20
2022-08-30T01:08:44.902Z,19.10
2022-08-30T01:11:16.990Z,19.10
2022-08-30T01:13:47.318Z,19.10
2022-08-30T01:16:15.099Z,19.10
2022-08-30T01:18:43.702Z,19.10
2022-08-30T01:21:27.398Z,19.10
2022-08-30T01:23:58.460Z,19.10
2022-08-30T01:26:28.683Z,19.10
2022-08-30T01:29:01.418Z,19.10
2022-08-30T01:31:28.360Z,19.10
2022-08-30T01:33:55.350Z,19.00
2022-08-30T01:36:22.609Z,19.00
2022-08-30T01:38:56.832Z,19.00
2022-08-30T01:41:32.075Z,19.00
2022-08-30T01:44:07.848Z,19.00
2022-08-30T01:46:40.463Z,19.00
2022-08-30T01:49:13.601Z,18.90
2022-08-30T01:51:44.249Z,18.90
2022-08-30T01:54:11.869Z,18.90
2022-08-30T01:56:39.453Z,18.90
2022-08-30T01:59:06.810Z,18.90
2022-08-30T02:01:36.987Z,18.90
2022-08-30T02:04:05.249Z,18.80
2022-08-30T02:06:32.316Z,18.80
2022-08-30T02:09:00.089Z,18.90
2022-08-30T02:11:36.061Z,18.80
2022-08-30T02:14:02.974Z,18.80
2022-08-30T02:16:30.169Z,18.80
2022-08-30T02:18:57.440Z,18.80
2022-08-30T02:21:27.653Z,18.70
2022-08-30T02:23:55.270Z,18.70
2022-08-30T02:26:22.361Z,18.70
2022-08-30T02:28:50.485Z,18.70
2022-08-30T02:31:20.946Z,18.60
2022-08-30T02:33:51.317Z,18.60
2022-08-30T02:36:20.716Z,18.60
2022-08-30T02:38:50.159Z,18.50
2022-08-30T02:41:18.740Z,18.60
2022-08-30T02:43:46.105Z,18.50
2022-08-30T02:46:13.668Z,18.40
2022-08-30T02:48:40.586Z,18.40
2022-08-30T02:51:11.882Z,18.40
2022-08-30T02:53:41.667Z,18.40
2022-08-30T02:56:08.674Z,18.30
2022-08-30T02:58:36.821Z,18.30
2022-08-30T03:01:05.554Z,18.20
2022-08-30T03:03:32.655Z,18.20
2022-08-30T03:05:59.825Z,18.20
2022-08-30T03:08:26.708Z,18.10
2022-08-30T03:10:53.620Z,18.10
2022-08-30T03:13:21.086Z,18.10
2022-08-30T03:15:50.324Z,18.10
2022-08-30T03:18:21.180Z,18.10
2022-08-30T03:20:53.997Z,18.10
2022-08-30T03:23:23.532Z,18.10
2022-08-30T03:25:50.690Z,18.10
2022-08-30T03:28:17.729Z,18.00
2022-08-30T03:30:44.619Z,18.00
2022-08-30T03:33:11.604Z,17.90
2022-08-30T03:35:38.677Z,17.90
2022-08-30T03:38:06.362Z,17.90
2022-08-30T03:40:33.594Z,17.80
2022-08-30T03:43:00.985Z,17.80
2022-08-30T03:45:28.343Z,17.80
2022-08-30T03:47:55.384Z,17.80
2022-08-30T03:50:22.442Z,17.80
2022-08-30T03:52:49.332Z,17.80
2022-08-30T03:55:16.821Z,17.80
2022-08-30T03:57:43.884Z,17.80
2022-08-30T04:00:14.204Z,17.80
2022-08-30T04:02:41.720Z,17.80
2022-08-30T04:05:11.277Z,17.80
2022-08-30T04:07:39.339Z,17.70
2022-08-30T04:10:09.115Z,17.80
2022-08-30T04:12:38.478Z,17.70
2022-08-30T04:15:07.639Z,17.70
2022-08-30T04:17:34.589Z,17.70
2022-08-30T04:20:01.541Z,17.70
2022-08-30T04:22:28.368Z,17.70
2022-08-30T04:24:55.542Z,17.60
2022-08-30T04:27:22.536Z,17.60
2022-08-30T04:29:49.594Z,17.60
2022-08-30T04:32:17.091Z,17.60
2022-08-30T04:34:44.605Z,17.50
2022-08-30T04:37:11.543Z,17.50
2022-08-30T04:39:38.790Z,17.50
2022-08-30T04:42:06.899Z,17.50
2022-08-30T04:44:36.122Z,17.40
2022-08-30T04:47:03.042Z,17.40
2022-08-30T04:49:30.176Z,17.40
2022-08-30T04:51:57.097Z,17.40
2022-08-30T04:54:24.038Z,17.40
2022-08-30T04:56:50.894Z,17.40
2022-08-30T04:59:17.826Z,17.40
2022-08-30T05:01:46.092Z,17.40
2022-08-30T05:04:15.126Z,17.40
2022-08-30T05:06:42.586Z,17.40
2022-08-30T05:09:09.638Z,17.40
2022-08-30T05:11:38.109Z,17.40
2022-08-30T05:14:06.147Z,17.40
2022-08-30T05:16:33.342Z,17.40
2022-08-30T05:19:00.672Z,17.40
2022-08-30T05:21:29.387Z,17.40
2022-08-30T05:24:00.004Z,17.30
2022-08-30T05:26:31.696Z,17.30
2022-08-30T05:28:59.029Z,17.30
2022-08-30T05:31:31.071Z,17.30
2022-08-30T05:33:58.369Z,17.30
2022-08-30T05:36:29.150Z,17.30
2022-08-30T05:38:56.631Z,17.30
2022-08-30T05:41:26.720Z,17.30
2022-08-30T05:43:57.735Z,17.30
2022-08-30T05:46:28.813Z,17.30
2022-08-30T05:48:56.973Z,17.30
2022-08-30T05:51:28.727Z,17.30
2022-08-30T05:53:57.577Z,17.30
2022-08-30T05:56:30.158Z,17.30
2022-08-30T05:58:57.322Z,17.40
2022-08-30T06:01:28.817Z,17.40
2022-08-30T06:04:02.933Z,17.50
2022-08-30T06:06:32.961Z,17.60
2022-08-30T06:09:00.443Z,17.60
2022-08-30T06:11:28.408Z,17.70
2022-08-30T06:13:56.141Z,17.70
2022-08-30T06:16:26.249Z,17.70
2022-08-30T06:18:55.733Z,17.70
2022-08-30T06:21:34.130Z,17.70
2022-08-30T06:24:03.121Z,17.70
2022-08-30T06:29:02.769Z,17.80
2022-08-30T06:31:29.730Z,17.90
2022-08-30T06:33:56.623Z,18.00
2022-08-30T06:36:26.507Z,18.00
2022-08-30T06:38:56.405Z,18.10
2022-08-30T06:41:28.365Z,18.10
2022-08-30T06:43:56.934Z,18.20
2022-08-30T06:46:32.411Z,18.30
2022-08-30T06:49:01.310Z,18.30
2022-08-30T06:51:34.772Z,18.40
2022-08-30T06:54:04.580Z,18.50
2022-08-30T06:56:31.655Z,18.60
2022-08-30T06:58:59.091Z,18.70
2022-08-30T07:01:28.689Z,18.70
2022-08-30T07:03:56.700Z,18.90
2022-08-30T07:06:25.526Z,19.00
2022-08-30T07:08:56.511Z,19.10
2022-08-30T07:11:41.879Z,19.10
2022-08-30T07:14:09.317Z,19.20
2022-08-30T07:16:36.648Z,19.30
2022-08-30T07:19:05.624Z,19.40
2022-08-30T07:21:40.372Z,19.50
2022-08-30T07:24:10.068Z,19.60
2022-08-30T07:26:42.479Z,19.80
2022-08-30T07:29:10.240Z,20.00
2022-08-30T07:31:50.565Z,20.10
2022-08-30T07:34:26.933Z,20.30
2022-08-30T07:36:54.784Z,20.40
2022-08-30T07:39:22.550Z,20.50
2022-08-30T07:41:50.748Z,20.60
2022-08-30T07:44:18.092Z,20.70
2022-08-30T07:46:45.080Z,20.80
2022-08-30T07:49:12.951Z,21.00
2022-08-30T07:51:41.236Z,21.20
2022-08-30T07:54:08.915Z,21.50
2022-08-30T07:56:35.941Z,21.70
2022-08-30T07:59:02.981Z,21.80
2022-08-30T08:01:30.428Z,22.00
2022-08-30T08:04:01.775Z,22.20
2022-08-30T08:06:29.802Z,22.40
2022-08-30T08:09:02.365Z,22.60
2022-08-30T08:11:33.693Z,22.60
2022-08-30T08:14:03.079Z,22.60
2022-08-30T08:16:33.293Z,22.70
2022-08-30T08:19:00.536Z,22.80
2022-08-30T08:21:28.296Z,23.00
2022-08-30T08:23:55.587Z,23.10
2022-08-30T08:26:23.378Z,23.20
2022-08-30T08:28:51.430Z,23.40
2022-08-30T08:31:28.765Z,23.40
2022-08-30T08:34:09.754Z,23.60
2022-08-30T08:36:37.448Z,23.80
2022-08-30T08:39:09.599Z,23.90
2022-08-30T08:42:16.967Z,24.00
2022-08-30T08:44:50.566Z,24.20
2022-08-30T08:48:05.290Z,24.50
2022-08-30T08:50:33.007Z,24.70
2022-08-30T08:53:49.652Z,24.80
2022-08-30T08:56:19.220Z,24.80
2022-08-30T08:58:54.763Z,24.70
2022-08-30T09:01:26.358Z,24.70
2022-08-30T09:03:54.503Z,24.80
2022-08-30T09:07:03.801Z,24.80
2022-08-30T09:09:40.240Z,25.00
2022-08-30T09:12:11.253Z,25.00
2022-08-30T09:14:47.724Z,25.10
2022-08-30T09:17:17.974Z,25.30
2022-08-30T09:19:58.598Z,25.60
2022-08-30T09:22:36.275Z,25.80
2022-08-30T09:25:13.511Z,25.80
2022-08-30T09:27:48.012Z,25.90
2022-08-30T09:30:25.599Z,25.80
2022-08-30T09:33:03.507Z,25.80
2022-08-30T09:35:47.077Z,26.00
2022-08-30T09:38:24.500Z,26.00
2022-08-30T09:40:58.926Z,26.30
2022-08-30T09:43:31.110Z,26.60
2022-08-30T09:46:02.336Z,27.00
2022-08-30T09:48:39.454Z,27.20
2022-08-30T09:51:12.045Z,27.10
2022-08-30T09:54:31.134Z,27.10
2022-08-30T09:57:33.536Z,27.20
2022-08-30T10:00:33.236Z,27.10
2022-08-30T10:03:46.476Z,27.00
2022-08-30T10:06:27.900Z,27.10
2022-08-30T10:09:33.696Z,27.50
2022-08-30T10:12:28.467Z,27.80
2022-08-30T10:15:07.773Z,28.00
2022-08-30T10:18:05.803Z,28.00
2022-08-30T10:21:06.156Z,28.00
2022-08-30T10:23:44.574Z,28.30
2022-08-30T10:26:45.293Z,28.60
2022-08-30T10:29:19.343Z,28.90
2022-08-30T10:31:57.078Z,29.10
2022-08-30T10:34:40.935Z,29.40
2022-08-30T10:37:27.693Z,29.60
2022-08-30T10:40:28.444Z,29.70
2022-08-30T10:43:03.264Z,29.90
2022-08-30T10:45:34.245Z,30.00
2022-08-30T10:48:24.916Z,29.80
2022-08-30T10:50:59.024Z,29.70
2022-08-30T10:53:39.472Z,29.70
2022-08-30T10:56:14.321Z,29.70
2022-08-30T10:58:43.055Z,29.80
2022-08-30T11:01:47.612Z,29.80
2022-08-30T11:04:40.070Z,30.00
2022-08-30T11:07:47.234Z,30.20
2022-08-30T11:10:37.889Z,30.40
2022-08-30T11:13:39.604Z,30.30
2022-08-30T11:16:16.730Z,30.40
2022-08-30T11:18:56.346Z,30.60
2022-08-30T11:21:39.013Z,30.70
2022-08-30T11:24:13.574Z,30.80
2022-08-30T11:26:46.160Z,31.00
2022-08-30T11:29:42.723Z,31.00
2022-08-30T11:32:12.708Z,31.00
2022-08-30T11:34:48.193Z,30.90
2022-08-30T11:37:45.203Z,30.90
2022-08-30T11:40:24.416Z,30.70
2022-08-30T11:42:55.895Z,30.60
2022-08-30T11:45:25.469Z,30.70
2022-08-30T11:47:59.667Z,30.80
2022-08-30T11:50:36.629Z,30.90
2022-08-30T11:53:54.571Z,30.90
2022-08-30T11:57:01.491Z,30.90
2022-08-30T11:59:49.874Z,30.80
2022-08-30T12:02:59.364Z,31.00
2022-08-30T12:05:39.714Z,31.00
2022-08-30T12:08:28.419Z,31.10
2022-08-30T12:11:05.431Z,31.10
2022-08-30T12:13:38.008Z,31.40
2022-08-30T12:16:24.995Z,31.40
2022-08-30T12:19:00.122Z,31.40
2022-08-30T12:21:44.661Z,31.10
2022-08-30T12:24:41.012Z,31.20
2022-08-30T12:27:42.578Z,31.30
2022-08-30T12:30:27.950Z,31.40
2022-08-30T12:32:55.407Z,31.30
2022-08-30T12:35:28.346Z,31.20
2022-08-30T12:38:05.805Z,31.40
2022-08-30T12:40:34.823Z,31.40
2022-08-30T12:43:22.428Z,31.60
2022-08-30T12:45:56.314Z,31.70
2022-08-30T12:48:25.111Z,31.80
2022-08-30T12:50:57.310Z,31.70
2022-08-30T12:53:32.149Z,31.70
2022-08-30T12:56:11.725Z,31.70
2022-08-30T12:58:53.327Z,31.60
2022-08-30T13:01:31.216Z,31.50
2022-08-30T13:04:00.401Z,31.40
2022-08-30T13:06:43.754Z,31.50
2022-08-30T13:09:43.975Z,31.50
2022-08-30T13:12:27.187Z,31.60
2022-08-30T13:15:19.879Z,31.60
2022-08-30T13:17:48.566Z,31.60
2022-08-30T13:20:36.253Z,31.40
2022-08-30T13:23:46.691Z,31.20
2022-08-30T13:26:26.728Z,31.30
2022-08-30T13:29:19.489Z,31.20
2022-08-30T13:31:47.590Z,31.10
2022-08-30T13:34:18.936Z,31.00
2022-08-30T13:36:54.586Z,30.80
2022-08-30T13:39:21.644Z,30.80
2022-08-30T13:41:50.407Z,30.70
2022-08-30T13:44:19.682Z,30.50
2022-08-30T13:46:55.364Z,30.30
2022-08-30T13:49:46.864Z,30.30
2022-08-30T13:52:25.687Z,30.50
2022-08-30T13:54:57.029Z,30.60
2022-08-30T14:00:21.838Z,30.70
2022-08-30T14:02:54.080Z,30.80
2022-08-30T14:06:09.917Z,30.80
2022-08-30T14:08:46.299Z,30.90
2022-08-30T14:11:19.750Z,31.00
2022-08-30T14:16:41.399Z,31.10
2022-08-30T14:19:12.576Z,31.20
2022-08-30T14:21:49.646Z,31.20
2022-08-30T14:24:21.645Z,31.20
2022-08-30T14:26:56.858Z,31.10
2022-08-30T14:29:30.664Z,31.00
2022-08-30T14:31:59.992Z,31.00
2022-08-30T14:34:27.020Z,30.90
2022-08-30T14:36:55.462Z,30.90
2022-08-30T14:39:23.147Z,31.00
2022-08-30T14:41:55.370Z,30.90
2022-08-30T14:44:28.341Z,30.80
2022-08-30T14:46:56.409Z,30.80
2022-08-30T14:49:24.708Z,30.70
2022-08-30T14:51:52.404Z,30.70
2022-08-30T14:54:25.573Z,30.60
2022-08-30T14:56:53.642Z,30.70
2022-08-30T14:59:21.791Z,30.90
2022-08-30T15:01:48.686Z,30.80
2022-08-30T15:04:17.085Z,30.80
2022-08-30T15:06:47.932Z,30.90
2022-08-30T15:09:23.221Z,30.70
2022-08-30T15:11:55.269Z,30.60
2022-08-30T15:14:26.218Z,30.50
2022-08-30T15:16:55.983Z,30.50
2022-08-30T15:19:23.183Z,30.50
2022-08-30T15:21:51.006Z,30.40
2022-08-30T15:24:29.354Z,30.40
2022-08-30T15:26:59.523Z,30.40
2022-08-30T15:29:28.016Z,30.20
2022-08-30T15:31:58.521Z,30.10
2022-08-30T15:34:26.165Z,30.10
2022-08-30T15:36:55.242Z,30.20
2022-08-30T15:39:22.662Z,30.30
2022-08-30T15:41:54.583Z,30.50
2022-08-30T15:44:24.255Z,30.50
2022-08-30T15:46:51.180Z,30.50
2022-08-30T15:49:23.702Z,30.40
2022-08-30T15:51:54.106Z,30.30
2022-08-30T15:54:24.067Z,30.30
2022-08-30T15:56:58.729Z,30.20
2022-08-30T15:59:30.197Z,30.10
2022-08-30T16:01:57.914Z,30.00
2022-08-30T16:04:25.717Z,29.90
2022-08-30T16:06:53.244Z,29.90
2022-08-30T16:09:22.752Z,29.90
2022-08-30T16:11:50.611Z,29.70
2022-08-30T16:14:17.767Z,29.50
2022-08-30T16:16:46.389Z,29.20
2022-08-30T16:19:13.663Z,29.00
2022-08-30T16:21:41.620Z,28.80
2022-08-30T16:24:13.403Z,28.70
2022-08-30T16:26:43.034Z,28.70
2022-08-30T16:29:12.265Z,28.70
2022-08-30T16:31:40.287Z,28.70
2022-08-30T16:34:07.226Z,28.60
2022-08-30T16:36:35.866Z,28.60
2022-08-30T16:39:08.171Z,28.60
2022-08-30T16:41:36.873Z,28.60
2022-08-30T16:44:05.596Z,28.50
2022-08-30T16:46:34.340Z,28.20
2022-08-30T16:49:02.206Z,28.00
2022-08-30T16:51:32.958Z,27.90
2022-08-30T16:54:07.932Z,27.80
2022-08-30T16:56:36.680Z,27.70
2022-08-30T16:59:09.039Z,27.60
2022-08-30T17:01:38.875Z,27.40
2022-08-30T17:04:08.164Z,27.40
2022-08-30T17:06:36.270Z,27.20
2022-08-30T17:09:05.578Z,27.10
2022-08-30T17:11:37.922Z,26.90
2022-08-30T17:14:08.256Z,26.80
2022-08-30T17:16:37.103Z,26.70
2022-08-30T17:19:07.188Z,26.70
2022-08-30T17:21:35.212Z,26.50
2022-08-30T17:24:03.937Z,26.50
2022-08-30T17:26:33.712Z,26.40
2022-08-30T17:29:01.209Z,26.30
2022-08-30T17:31:30.409Z,26.20
2022-08-30T17:34:03.410Z,26.20
2022-08-30T17:36:36.196Z,26.10
2022-08-30T17:39:10.841Z,26.00
2022-08-30T17:41:45.605Z,26.00
2022-08-30T17:44:20.382Z,25.90
2022-08-30T17:46:47.389Z,25.90
2022-08-30T17:49:15.090Z,25.80
2022-08-30T17:51:43.492Z,25.80
2022-08-30T17:54:12.895Z,25.80
2022-08-30T17:56:42.292Z,25.70
2022-08-30T17:59:14.560Z,25.60
2022-08-30T18:01:44.018Z,25.60
2022-08-30T18:04:14.121Z,25.60
2022-08-30T18:06:47.406Z,25.40
2022-08-30T18:09:14.520Z,25.40
2022-08-30T18:11:41.479Z,25.30
2022-08-30T18:14:11.368Z,25.20
2022-08-30T18:16:53.748Z,25.20
2022-08-30T18:19:26.765Z,25.10
2022-08-30T18:21:55.166Z,25.00
2022-08-30T18:24:23.576Z,24.90
2022-08-30T18:26:52.388Z,24.80
2022-08-30T18:29:29.306Z,24.70
2022-08-30T18:32:02.628Z,24.70
2022-08-30T18:34:31.374Z,24.60
2022-08-30T18:36:58.441Z,24.50
2022-08-30T18:39:25.879Z,24.50
2022-08-30T18:41:54.587Z,24.50
2022-08-30T18:44:28.354Z,24.40
2022-08-30T18:46:57.965Z,24.40
2022-08-30T18:49:32.466Z,24.30
2022-08-30T18:52:00.535Z,24.30
2022-08-30T18:54:27.842Z,24.20
2022-08-30T18:56:54.835Z,24.20
2022-08-30T18:59:21.770Z,24.10
2022-08-30T19:01:49.688Z,24.00
2022-08-30T19:04:29.571Z,24.00
2022-08-30T19:07:04.867Z,23.90
2022-08-30T19:09:31.909Z,23.90
2022-08-30T19:11:58.927Z,23.80
2022-08-30T19:14:28.202Z,23.80
2022-08-30T19:17:02.055Z,23.70
2022-08-30T19:19:32.778Z,23.60
2022-08-30T19:22:01.992Z,23.60
2022-08-30T19:24:29.037Z,23.50
2022-08-30T19:26:55.883Z,23.50
2022-08-30T19:29:23.315Z,23.40
2022-08-30T19:31:51.821Z,23.30
2022-08-30T19:34:19.276Z,23.30
2022-08-30T19:36:48.885Z,23.30
2022-08-30T19:39:15.787Z,23.20
2022-08-30T19:41:44.347Z,23.10
2022-08-30T19:44:11.233Z,23.10
2022-08-30T19:46:38.257Z,23.10
2022-08-30T19:49:07.031Z,23.00
2022-08-30T19:51:34.092Z,23.00
2022-08-30T19:54:03.170Z,22.90
2022-08-30T19:56:30.358Z,22.90
2022-08-30T19:58:57.310Z,22.90
2022-08-30T20:01:33.311Z,22.80
2022-08-30T20:04:01.986Z,22.80
2022-08-30T20:06:32.409Z,22.70
2022-08-30T20:09:00.719Z,22.70
2022-08-30T20:11:29.016Z,22.60
2022-08-30T20:13:56.929Z,22.60
2022-08-30T20:16:33.279Z,22.50
2022-08-30T20:19:07.660Z,22.50
2022-08-30T20:21:35.671Z,22.40
2022-08-30T20:24:04.174Z,22.40
2022-08-30T20:26:34.241Z,22.30
2022-08-30T20:29:04.227Z,22.30
2022-08-30T20:31:31.743Z,22.20
2022-08-30T20:33:58.741Z,22.20
2022-08-30T20:36:26.007Z,22.20
2022-08-30T20:38:53.190Z,22.10
2022-08-30T20:41:20.683Z,22.10
2022-08-30T20:43:49.431Z,22.10
2022-08-30T20:46:19.960Z,22.10
2022-08-30T20:48:47.631Z,22.10
2022-08-30T20:51:22.964Z,22.10
2022-08-30T20:53:50.614Z,22.00
2022-08-30T20:56:22.087Z,22.00
2022-08-30T20:58:50.481Z,22.00
2022-08-30T21:01:18.071Z,22.00
2022-08-30T21:03:49.193Z,22.00
2022-08-30T21:06:20.030Z,21.90
2022-08-30T21:08:47.216Z,21.90
2022-08-30T21:11:14.837Z,21.80
2022-08-30T21:13:52.115Z,21.80
2022-08-30T21:16:22.159Z,21.80
2022-08-30T21:18:49.572Z,21.70
2022-08-30T21:21:25.425Z,21.70
2022-08-30T21:23:58.367Z,21.70
2022-08-30T21:26:25.407Z,21.60
2022-08-30T21:28:56.265Z,21.60
2022-08-30T21:31:28.436Z,21.60
2022-08-30T21:33:56.534Z,21.50
2022-08-30T21:36:44.715Z,21.50
2022-08-30T21:39:24.773Z,21.50
2022-08-30T21:41:56.773Z,21.40
2022-08-30T21:44:27.115Z,21.40
2022-08-30T21:46:54.761Z,21.30
2022-08-30T21:49:24.254Z,21.30
2022-08-30T21:51:53.575Z,21.30
2022-08-30T21:54:21.859Z,21.30
2022-08-30T21:56:52.566Z,21.20
2022-08-30T21:59:21.287Z,21.20
2022-08-30T22:01:49.927Z,21.10
2022-08-30T22:04:16.934Z,21.10
2022-08-30T22:06:48.091Z,21.10
2022-08-30T22:09:19.032Z,21.10
2022-08-30T22:11:47.321Z,21.00
2022-08-30T22:14:15.459Z,21.00
2022-08-30T22:16:43.604Z,21.00
2022-08-30T22:19:11.538Z,20.90
2022-08-30T22:21:41.775Z,20.90
2022-08-30T22:24:10.806Z,20.80
2022-08-30T22:26:39.047Z,20.80
2022-08-30T22:29:08.782Z,20.70
2022-08-30T22:31:37.964Z,20.70
2022-08-30T22:34:10.132Z,20.70
2022-08-30T22:36:38.641Z,20.60
2022-08-30T22:39:09.014Z,20.60
2022-08-30T22:41:39.517Z,20.50
2022-08-30T22:44:06.464Z,20.50
2022-08-30T22:46:35.264Z,20.50
2022-08-30T22:49:04.850Z,20.40
2022-08-30T22:51:32.122Z,20.40
2022-08-30T22:54:00.859Z,20.30
2022-08-30T22:56:29.259Z,20.30
2022-08-30T22:58:56.665Z,20.30
2022-08-30T23:01:30.629Z,20.30
2022-08-30T23:04:00.972Z,20.30
2022-08-30T23:06:30.188Z,20.20
2022-08-30T23:08:57.876Z,20.20
2022-08-30T23:11:25.857Z,20.20
2022-08-30T23:13:53.799Z,20.10
2022-08-30T23:16:21.515Z,20.10
2022-08-30T23:18:49.080Z,20.10
2022-08-30T23:21:23.877Z,20.10
2022-08-30T23:24:12.246Z,20.00
2022-08-30T23:26:59.254Z,20.00
2022-08-30T23:29:44.914Z,20.00
2022-08-30T23:32:30.784Z,19.90
2022-08-30T23:35:16.308Z,19.90
2022-08-30T23:38:01.913Z,19.90
2022-08-30T23:40:47.252Z,19.80
2022-08-30T23:43:32.822Z,19.80
2022-08-30T23:46:19.512Z,19.80
2022-08-30T23:49:07.731Z,19.70
2022-08-30T23:51:56.144Z,19.70
2022-08-30T23:54:42.856Z,19.60
2022-08-30T23:57:28.393Z,19.60
